Time,TemperatureF,DewpointF,PressureIn,WindDirection,WindDirectionDegrees,WindSpeedMPH,WindSpeedGustMPH,Humidity,HourlyPrecipIn,Conditions,Clouds,dailyrainin,SoftwareType,DateUTC
2013-06-30 00:00:00,63.8,62.9,29.63,SE,128,0.0,0.0,97,0.00,,---,0.05,VWS V14.01,2013-06-30 04:00:00,
2013-06-30 00:01:00,63.8,62.9,29.63,SE,136,0.0,0.0,97,0.00,,---,0.05,VWS V14.01,2013-06-30 04:01:00,
2013-06-30 00:02:00,63.8,62.9,29.63,SE,131,0.0,0.0,97,0.00,,---,0.05,VWS V14.01,2013-06-30 04:02:00,
2013-06-30 00:07:00,63.7,63.1,29.63,SE,134,0.0,0.0,98,0.00,,---,0.00,VWS V14.01,2013-06-30 04:07:00,
2013-06-30 00:12:00,63.6,63.0,29.63,SE,135,0.0,0.0,98,0.00,,---,0.00,VWS V14.01,2013-06-30 04:12:00,
2013-06-30 00:17:00,63.5,62.9,29.63,ESE,115,0.0,0.0,98,0.00,,---,0.00,VWS V14.01,2013-06-30 04:17:00,
2013-06-30 00:22:00,63.4,62.8,29.63,ESE,108,0.0,0.0,98,0.00,,---,0.00,VWS V14.01,2013-06-30 04:22:00,
2013-06-30 00:27:00,63.4,62.8,29.63,ESE,120,0.0,0.0,98,0.00,,---,0.00,VWS V14.01,2013-06-30 04:27:00,
2013-06-30 00:32:00,63.3,62.7,29.63,ESE,121,0.0,0.0,98,0.00,,---,0.00,VWS V14.01,2013-06-30 04:32:00,
2013-06-30 00:37:00,63.2,62.6,29.63,ESE,103,0.0,0.0,98,0.00,,---,0.00,VWS V14.01,2013-06-30 04:37:00,
2013-06-30 00:42:00,63.2,62.6,29.63,East,95,0.0,0.0,98,0.00,,---,0.00,VWS V14.01,2013-06-30 04:42:00,
2013-06-30 00:47:00,63.1,62.5,29.63,SE,136,0.0,0.0,98,0.00,,---,0.00,VWS V14.01,2013-06-30 04:47:00,
2013-06-30 00:52:00,63.1,62.5,29.63,SSE,150,0.0,0.0,98,0.00,,---,0.00,VWS V14.01,2013-06-30 04:52:00,
2013-06-30 00:57:00,63.1,62.5,29.63,ESE,120,0.0,0.0,98,0.00,,---,0.00,VWS V14.01,2013-06-30 04:57:00,
2013-06-30 01:00:00,63.8,63.2,29.63,ESE,118,0.0,0.0,98,0.00,,---,0.00,VWS V14.01,2013-06-30 05:00:00,
2013-06-30 01:02:00,63.0,62.4,29.63,ESE,120,0.0,0.0,98,0.00,,---,0.00,VWS V14.01,2013-06-30 05:02:00,
2013-06-30 01:07:00,63.0,62.4,29.63,ENE,67,0.0,0.0,98,0.00,,---,0.00,VWS V14.01,2013-06-30 05:07:00,
2013-06-30 01:12:00,63.0,62.4,29.63,SE,128,0.0,0.0,98,0.00,,---,0.00,VWS V14.01,2013-06-30 05:12:00,
2013-06-30 01:17:00,63.0,62.4,29.63,ESE,123,0.0,0.0,98,0.00,,---,0.00,VWS V14.01,2013-06-30 05:17:00,
2013-06-30 01:22:00,63.1,62.5,29.63,SE,130,0.0,0.0,98,0.00,,---,0.00,VWS V14.01,2013-06-30 05:22:00,
2013-06-30 01:27:00,63.1,62.5,29.63,ESE,123,0.0,0.0,98,0.00,,---,0.00,VWS V14.01,2013-06-30 05:27:00,
2013-06-30 01:30:00,63.3,62.7,29.63,NE,42,0.0,0.0,98,0.00,,---,0.00,VWS V14.01,2013-06-30 05:30:00,
2013-06-30 01:32:00,63.0,62.4,29.63,ENE,70,0.0,0.0,98,0.00,,---,0.00,VWS V14.01,2013-06-30 05:32:00,
2013-06-30 01:37:00,63.0,62.4,29.63,East,96,0.0,0.0,98,0.00,,---,0.00,VWS V14.01,2013-06-30 05:37:00,
2013-06-30 01:42:00,63.1,62.5,29.63,East,93,0.0,0.0,98,0.00,,---,0.00,VWS V14.01,2013-06-30 05:42:00,
2013-06-30 01:47:00,63.1,62.5,29.64,ESE,106,0.0,0.0,98,0.00,,---,0.00,VWS V14.01,2013-06-30 05:47:00,
2013-06-30 01:52:00,63.2,62.6,29.63,ESE,119,0.0,0.0,98,0.00,,---,0.00,VWS V14.01,2013-06-30 05:52:00,
2013-06-30 01:57:00,63.3,62.7,29.63,ESE,113,0.0,0.0,98,0.00,,---,0.00,VWS V14.01,2013-06-30 05:57:00,
2013-06-30 02:00:00,63.1,62.5,29.63,ESE,119,0.0,0.0,98,0.00,,---,0.00,VWS V14.01,2013-06-30 06:00:00,
2013-06-30 02:02:00,63.3,62.7,29.63,ESE,113,0.0,0.0,98,0.00,,---,0.00,VWS V14.01,2013-06-30 06:02:00,
2013-06-30 02:07:00,63.3,62.7,29.63,SE,130,0.0,0.0,98,0.00,,---,0.00,VWS V14.01,2013-06-30 06:07:00,
2013-06-30 02:12:00,63.3,62.7,29.64,ESE,107,0.0,0.0,98,0.00,,---,0.00,VWS V14.01,2013-06-30 06:12:00,
2013-06-30 02:17:00,63.3,62.7,29.64,ESE,105,0.0,0.0,98,0.00,,---,0.00,VWS V14.01,2013-06-30 06:17:00,
2013-06-30 02:22:00,63.3,62.7,29.64,ESE,123,0.0,0.0,98,0.00,,---,0.00,VWS V14.01,2013-06-30 06:22:00,
2013-06-30 02:27:00,63.3,62.7,29.64,ENE,60,0.0,0.0,98,0.00,,---,0.00,VWS V14.01,2013-06-30 06:27:00,
2013-06-30 02:30:00,63.0,62.4,29.63,East,82,0.0,0.0,98,0.00,,---,0.00,VWS V14.01,2013-06-30 06:30:00,
2013-06-30 02:32:00,63.3,62.7,29.64,SE,127,0.0,0.0,98,0.00,,---,0.00,VWS V14.01,2013-06-30 06:32:00,
2013-06-30 02:37:00,63.2,62.6,29.64,SE,128,0.0,0.0,98,0.00,,---,0.00,VWS V14.01,2013-06-30 06:37:00,
2013-06-30 02:42:00,63.1,62.5,29.64,ESE,106,0.0,0.0,98,0.00,,---,0.00,VWS V14.01,2013-06-30 06:42:00,
2013-06-30 02:47:00,63.0,62.4,29.63,ESE,111,0.0,0.0,98,0.00,,---,0.00,VWS V14.01,2013-06-30 06:47:00,
2013-06-30 02:52:00,63.0,62.4,29.63,SE,138,0.0,0.0,98,0.00,,---,0.00,VWS V14.01,2013-06-30 06:52:00,
2013-06-30 02:57:00,63.0,62.4,29.64,East,92,0.0,0.0,98,0.00,,---,0.00,VWS V14.01,2013-06-30 06:57:00,
2013-06-30 03:00:00,63.3,62.7,29.63,ESE,112,0.0,0.0,98,0.00,,---,0.00,VWS V14.01,2013-06-30 07:00:00,
2013-06-30 03:02:00,63.0,62.4,29.64,ENE,69,0.0,0.0,98,0.00,,---,0.00,VWS V14.01,2013-06-30 07:02:00,
2013-06-30 03:06:00,62.8,62.2,29.64,SE,124,0.0,0.0,98,0.00,,---,0.00,VWS V14.01,2013-06-30 07:06:00,
2013-06-30 03:11:00,62.7,62.1,29.64,SE,146,0.0,0.0,98,0.00,,---,0.00,VWS V14.01,2013-06-30 07:11:00,
2013-06-30 03:16:00,62.7,62.1,29.64,ESE,108,0.0,0.0,98,0.00,,---,0.00,VWS V14.01,2013-06-30 07:16:00,
2013-06-30 03:21:00,62.6,62.0,29.64,ENE,71,0.0,0.0,98,0.00,,---,0.00,VWS V14.01,2013-06-30 07:21:00,
2013-06-30 03:26:00,62.7,62.1,29.64,East,101,0.0,0.0,98,0.00,,---,0.00,VWS V14.01,2013-06-30 07:26:00,
2013-06-30 03:30:00,63.2,62.6,29.64,ESE,121,0.0,0.0,98,0.00,,---,0.00,VWS V14.01,2013-06-30 07:30:00,
2013-06-30 03:31:00,62.7,62.1,29.64,ESE,112,0.0,0.0,98,0.00,,---,0.00,VWS V14.01,2013-06-30 07:31:00,
2013-06-30 03:36:00,62.7,62.1,29.64,ENE,67,0.0,0.0,98,0.00,,---,0.00,VWS V14.01,2013-06-30 07:36:00,
2013-06-30 03:41:00,62.7,62.1,29.64,East,81,0.0,0.0,98,0.00,,---,0.00,VWS V14.01,2013-06-30 07:41:00,
2013-06-30 03:46:00,62.7,62.1,29.64,SSE,148,0.0,0.0,98,0.00,,---,0.00,VWS V14.01,2013-06-30 07:46:00,
2013-06-30 03:51:00,62.7,62.1,29.65,ESE,117,0.0,0.0,98,0.00,,---,0.00,VWS V14.01,2013-06-30 07:51:00,
2013-06-30 03:56:00,62.6,62.0,29.65,East,79,0.0,0.0,98,0.00,,---,0.00,VWS V14.01,2013-06-30 07:56:00,
2013-06-30 04:00:00,62.9,62.3,29.64,ESE,111,0.0,0.0,98,0.00,,---,0.00,VWS V14.01,2013-06-30 08:00:00,
2013-06-30 04:01:00,62.6,62.0,29.65,ESE,122,0.0,0.0,98,0.00,,---,0.00,VWS V14.01,2013-06-30 08:01:00,
2013-06-30 04:06:00,62.5,61.9,29.65,East,81,0.0,0.0,98,0.00,,---,0.00,VWS V14.01,2013-06-30 08:06:00,
2013-06-30 04:11:00,62.4,61.8,29.65,East,93,0.0,0.0,98,0.00,,---,0.00,VWS V14.01,2013-06-30 08:11:00,
2013-06-30 04:16:00,62.4,61.8,29.65,East,83,0.0,0.0,98,0.00,,---,0.00,VWS V14.01,2013-06-30 08:16:00,
2013-06-30 04:21:00,62.4,61.8,29.65,SSE,151,0.0,0.0,98,0.00,,---,0.00,VWS V14.01,2013-06-30 08:21:00,
2013-06-30 04:26:00,62.4,61.8,29.65,ESE,117,0.0,0.0,98,0.00,,---,0.00,VWS V14.01,2013-06-30 08:26:00,
2013-06-30 04:30:00,62.7,62.1,29.65,SE,136,0.0,0.0,98,0.00,,---,0.00,VWS V14.01,2013-06-30 08:30:00,
2013-06-30 04:31:00,62.3,61.7,29.65,SE,132,0.0,0.0,98,0.00,,---,0.00,VWS V14.01,2013-06-30 08:31:00,
2013-06-30 04:36:00,62.3,61.7,29.65,ESE,110,0.0,0.0,98,0.00,,---,0.00,VWS V14.01,2013-06-30 08:36:00,
2013-06-30 04:41:00,62.3,61.7,29.65,ESE,121,0.0,0.0,98,0.00,,---,0.00,VWS V14.01,2013-06-30 08:41:00,
2013-06-30 04:46:00,62.3,61.7,29.66,NE,43,0.0,0.0,98,0.00,,---,0.00,VWS V14.01,2013-06-30 08:46:00,
2013-06-30 04:51:00,62.4,61.8,29.66,ESE,105,0.0,0.0,98,0.00,,---,0.00,VWS V14.01,2013-06-30 08:51:00,
2013-06-30 04:56:00,62.3,61.7,29.66,ENE,72,0.0,0.0,98,0.00,,---,0.00,VWS V14.01,2013-06-30 08:56:00,
2013-06-30 05:00:00,62.5,61.9,29.65,SE,136,0.0,0.0,98,0.00,,---,0.00,VWS V14.01,2013-06-30 09:00:00,
2013-06-30 05:01:00,62.3,61.7,29.66,SE,139,0.0,0.0,98,0.00,,---,0.00,VWS V14.01,2013-06-30 09:01:00,
2013-06-30 05:06:00,62.2,61.6,29.67,East,90,0.0,0.0,98,0.00,,---,0.00,VWS V14.01,2013-06-30 09:06:00,
2013-06-30 05:11:00,62.4,61.8,29.67,ESE,106,0.0,0.0,98,0.00,,---,0.00,VWS V14.01,2013-06-30 09:11:00,
2013-06-30 05:16:00,62.4,61.8,29.67,SE,128,0.0,0.0,98,0.00,,---,0.00,VWS V14.01,2013-06-30 09:16:00,
2013-06-30 05:21:00,62.4,61.8,29.67,ESE,105,0.0,0.0,98,0.00,,---,0.00,VWS V14.01,2013-06-30 09:21:00,
2013-06-30 05:26:00,62.4,61.8,29.67,ESE,117,0.0,0.0,98,0.00,,---,0.00,VWS V14.01,2013-06-30 09:26:00,
2013-06-30 05:30:00,62.3,61.7,29.65,ESE,108,0.0,0.0,98,0.00,,---,0.00,VWS V14.01,2013-06-30 09:30:00,
2013-06-30 05:31:00,62.3,61.7,29.67,SE,132,0.0,0.0,98,0.00,,---,0.00,VWS V14.01,2013-06-30 09:31:00,
2013-06-30 05:36:00,62.3,61.7,29.67,East,94,0.0,0.0,98,0.00,,---,0.00,VWS V14.01,2013-06-30 09:36:00,
2013-06-30 05:41:00,62.3,61.7,29.67,SE,136,0.0,0.0,98,0.00,,---,0.00,VWS V14.01,2013-06-30 09:41:00,
2013-06-30 05:46:00,62.3,61.7,29.68,SE,128,0.0,0.0,98,0.00,,---,0.00,VWS V14.01,2013-06-30 09:46:00,
2013-06-30 05:51:00,62.3,61.7,29.68,ESE,115,0.0,0.0,98,0.00,,---,0.00,VWS V14.01,2013-06-30 09:51:00,
2013-06-30 05:56:00,62.2,61.6,29.68,East,82,0.0,0.0,98,0.00,,---,0.00,VWS V14.01,2013-06-30 09:56:00,
2013-06-30 06:00:00,62.3,61.7,29.66,ESE,121,0.0,0.0,98,0.00,,---,0.00,VWS V14.01,2013-06-30 10:00:00,
2013-06-30 06:01:00,62.2,61.6,29.68,SE,125,0.0,0.0,98,0.00,,---,0.00,VWS V14.01,2013-06-30 10:01:00,
2013-06-30 06:06:00,62.1,61.5,29.68,ESE,111,0.0,0.0,98,0.00,,---,0.00,VWS V14.01,2013-06-30 10:06:00,
2013-06-30 06:11:00,62.2,61.6,29.68,ESE,112,0.0,0.0,98,0.00,,---,0.00,VWS V14.01,2013-06-30 10:11:00,
2013-06-30 06:16:00,62.2,61.6,29.68,ESE,105,0.0,0.0,98,0.00,,---,0.00,VWS V14.01,2013-06-30 10:16:00,
2013-06-30 06:21:00,62.2,61.6,29.69,SE,131,0.0,0.0,98,0.00,,---,0.00,VWS V14.01,2013-06-30 10:21:00,
2013-06-30 06:26:00,62.1,61.5,29.69,ESE,109,0.0,0.0,98,0.00,,---,0.00,VWS V14.01,2013-06-30 10:26:00,
2013-06-30 06:30:00,62.3,61.7,29.67,SE,128,0.0,0.0,98,0.00,,---,0.00,VWS V14.01,2013-06-30 10:30:00,
2013-06-30 06:31:00,62.1,61.5,29.68,ESE,122,0.0,0.0,98,0.00,,---,0.00,VWS V14.01,2013-06-30 10:31:00,
2013-06-30 06:36:00,62.1,61.5,29.69,SE,134,0.0,0.0,98,0.00,,---,0.00,VWS V14.01,2013-06-30 10:36:00,
2013-06-30 06:41:00,62.2,61.9,29.69,ESE,114,0.0,0.0,99,0.00,,---,0.00,VWS V14.01,2013-06-30 10:41:00,
2013-06-30 06:46:00,62.2,61.9,29.69,ESE,115,0.0,0.0,99,0.00,,---,0.00,VWS V14.01,2013-06-30 10:46:00,
2013-06-30 06:51:00,62.2,61.9,29.69,ESE,118,0.0,0.0,99,0.00,,---,0.00,VWS V14.01,2013-06-30 10:51:00,
2013-06-30 06:56:00,62.2,61.9,29.69,SE,124,0.0,0.0,99,0.00,,---,0.00,VWS V14.01,2013-06-30 10:56:00,
2013-06-30 07:00:00,62.1,61.5,29.68,East,86,0.0,0.0,98,0.00,,---,0.00,VWS V14.01,2013-06-30 11:00:00,
2013-06-30 07:01:00,62.3,62.0,29.70,ESE,115,0.0,0.0,99,0.00,,---,0.00,VWS V14.01,2013-06-30 11:01:00,
2013-06-30 07:06:00,62.3,62.0,29.69,East,89,0.0,0.0,99,0.00,,---,0.00,VWS V14.01,2013-06-30 11:06:00,
2013-06-30 07:11:00,62.3,62.0,29.69,ESE,119,0.0,0.0,99,0.00,,---,0.00,VWS V14.01,2013-06-30 11:11:00,
2013-06-30 07:16:00,62.4,62.1,29.70,East,86,0.0,0.0,99,0.00,,---,0.00,VWS V14.01,2013-06-30 11:16:00,
2013-06-30 07:21:00,62.5,61.9,29.70,ESE,105,0.0,0.0,98,0.00,,---,0.00,VWS V14.01,2013-06-30 11:21:00,
2013-06-30 07:26:00,62.5,61.9,29.70,ESE,105,0.0,0.0,98,0.00,,---,0.00,VWS V14.01,2013-06-30 11:26:00,
2013-06-30 07:30:00,62.1,61.5,29.69,ESE,104,0.0,0.0,98,0.00,,---,0.00,VWS V14.01,2013-06-30 11:30:00,
2013-06-30 07:31:00,62.5,61.9,29.71,ESE,118,0.0,0.0,98,0.00,,---,0.00,VWS V14.01,2013-06-30 11:31:00,
2013-06-30 07:36:00,62.5,61.9,29.71,SE,128,0.0,0.0,98,0.00,,---,0.00,VWS V14.01,2013-06-30 11:36:00,
2013-06-30 07:41:00,62.6,62.0,29.71,ESE,116,0.0,0.0,98,0.00,,---,0.00,VWS V14.01,2013-06-30 11:41:00,
2013-06-30 07:46:00,62.6,62.0,29.72,East,92,0.0,0.0,98,0.00,,---,0.00,VWS V14.01,2013-06-30 11:46:00,
2013-06-30 07:51:00,62.6,62.0,29.72,SE,130,0.0,0.0,98,0.00,,---,0.00,VWS V14.01,2013-06-30 11:51:00,
2013-06-30 07:56:00,62.8,62.2,29.72,SE,127,0.0,0.0,98,0.00,,---,0.00,VWS V14.01,2013-06-30 11:56:00,
2013-06-30 08:00:00,62.3,62.0,29.70,ESE,120,0.0,0.0,99,0.00,,---,0.00,VWS V14.01,2013-06-30 12:00:00,
2013-06-30 08:01:00,62.9,62.6,29.72,ENE,59,0.0,0.0,99,0.00,,---,0.00,VWS V14.01,2013-06-30 12:01:00,
2013-06-30 08:06:00,62.9,62.6,29.72,ESE,120,0.0,0.0,99,0.00,,---,0.00,VWS V14.01,2013-06-30 12:06:00,
2013-06-30 08:11:00,62.9,62.6,29.73,ESE,108,0.0,0.0,99,0.00,,---,0.00,VWS V14.01,2013-06-30 12:11:00,
2013-06-30 08:16:00,62.8,62.5,29.73,SE,124,0.0,0.0,99,0.00,,---,0.00,VWS V14.01,2013-06-30 12:16:00,
2013-06-30 08:21:00,62.9,62.6,29.73,East,88,0.0,0.0,99,0.00,,---,0.00,VWS V14.01,2013-06-30 12:21:00,
2013-06-30 08:26:00,63.2,62.6,29.73,ESE,120,0.0,0.0,98,0.00,,---,0.00,VWS V14.01,2013-06-30 12:26:00,
2013-06-30 08:30:00,62.6,62.0,29.71,ESE,106,0.0,0.0,98,0.00,,---,0.00,VWS V14.01,2013-06-30 12:30:00,
2013-06-30 08:31:00,63.4,63.1,29.73,ESE,118,0.0,0.0,99,0.00,,---,0.00,VWS V14.01,2013-06-30 12:31:00,
2013-06-30 08:36:00,63.6,63.3,29.73,SE,130,0.0,0.0,99,0.00,,---,0.00,VWS V14.01,2013-06-30 12:36:00,
2013-06-30 08:41:00,63.7,63.4,29.73,ESE,112,0.0,0.0,99,0.00,,---,0.00,VWS V14.01,2013-06-30 12:41:00,
2013-06-30 08:46:00,63.9,63.6,29.74,ESE,120,0.0,0.0,99,0.00,,---,0.00,VWS V14.01,2013-06-30 12:46:00,
2013-06-30 08:51:00,64.0,63.7,29.74,ESE,116,0.0,0.0,99,0.00,,---,0.00,VWS V14.01,2013-06-30 12:51:00,
2013-06-30 08:56:00,64.2,63.9,29.74,SE,126,0.0,0.0,99,0.00,,---,0.00,VWS V14.01,2013-06-30 12:56:00,
2013-06-30 09:00:00,62.9,62.6,29.72,East,88,0.0,0.0,99,0.00,,---,0.00,VWS V14.01,2013-06-30 13:00:00,
2013-06-30 09:01:00,64.5,64.2,29.74,SE,124,0.0,0.0,99,0.00,,---,0.00,VWS V14.01,2013-06-30 13:01:00,
2013-06-30 09:06:00,64.7,64.4,29.74,ESE,123,0.0,0.0,99,0.00,,---,0.00,VWS V14.01,2013-06-30 13:06:00,
2013-06-30 09:11:00,64.9,64.6,29.74,SE,128,0.0,0.0,99,0.00,,---,0.00,VWS V14.01,2013-06-30 13:11:00,
2013-06-30 09:16:00,65.1,64.8,29.74,ESE,109,0.0,0.0,99,0.00,,---,0.00,VWS V14.01,2013-06-30 13:16:00,
2013-06-30 09:21:00,65.3,65.0,29.74,ESE,119,0.0,0.0,99,0.00,,---,0.00,VWS V14.01,2013-06-30 13:21:00,
2013-06-30 09:26:00,65.6,65.3,29.74,East,84,0.0,0.0,99,0.00,,---,0.00,VWS V14.01,2013-06-30 13:26:00,
2013-06-30 09:30:00,63.5,63.2,29.73,SE,129,0.0,0.0,99,0.00,,---,0.00,VWS V14.01,2013-06-30 13:30:00,
2013-06-30 09:31:00,65.6,65.3,29.74,ESE,117,0.0,0.0,99,0.00,,---,0.00,VWS V14.01,2013-06-30 13:31:00,
2013-06-30 09:36:00,66.0,65.7,29.74,ESE,105,0.0,0.0,99,0.00,,---,0.00,VWS V14.01,2013-06-30 13:36:00,
2013-06-30 09:41:00,66.1,65.8,29.74,East,96,0.0,0.0,99,0.00,,---,0.00,VWS V14.01,2013-06-30 13:41:00,
2013-06-30 09:46:00,66.3,66.0,29.74,East,80,0.0,0.0,99,0.00,,---,0.00,VWS V14.01,2013-06-30 13:46:00,
2013-06-30 09:51:00,66.7,66.4,29.74,SE,127,0.0,0.0,99,0.00,,---,0.00,VWS V14.01,2013-06-30 13:51:00,
2013-06-30 09:56:00,66.9,66.6,29.74,ESE,103,0.0,0.0,99,0.00,,---,0.00,VWS V14.01,2013-06-30 13:56:00,
2013-06-30 10:00:00,64.5,64.2,29.74,ESE,116,0.0,0.0,99,0.00,,---,0.00,VWS V14.01,2013-06-30 14:00:00,
2013-06-30 10:01:00,67.4,67.1,29.75,ESE,107,0.0,0.0,99,0.00,,---,0.00,VWS V14.01,2013-06-30 14:01:00,
2013-06-30 10:06:00,67.8,67.5,29.74,ESE,119,0.0,0.0,99,0.00,,---,0.00,VWS V14.01,2013-06-30 14:06:00,
2013-06-30 10:11:00,68.2,67.9,29.74,ESE,110,0.0,0.0,99,0.01,,---,0.01,VWS V14.01,2013-06-30 14:11:00,
2013-06-30 10:16:00,68.8,68.5,29.74,SE,132,0.0,0.0,99,0.01,,---,0.01,VWS V14.01,2013-06-30 14:16:00,
2013-06-30 10:21:00,69.1,68.5,29.74,East,86,0.0,0.0,98,0.01,,---,0.01,VWS V14.01,2013-06-30 14:21:00,
2013-06-30 10:26:00,69.7,68.5,29.74,SE,132,0.0,0.0,96,0.01,,---,0.01,VWS V14.01,2013-06-30 14:26:00,
2013-06-30 10:30:00,65.9,65.6,29.74,ESE,112,0.0,0.0,99,0.00,,---,0.00,VWS V14.01,2013-06-30 14:30:00,
2013-06-30 10:31:00,70.0,68.2,29.74,East,87,0.0,0.0,94,0.01,,---,0.01,VWS V14.01,2013-06-30 14:31:00,
2013-06-30 10:36:00,70.3,67.9,29.74,East,98,0.0,0.0,92,0.01,,---,0.01,VWS V14.01,2013-06-30 14:36:00,
2013-06-30 10:41:00,70.6,68.5,29.74,ESE,123,0.0,0.0,93,0.01,,---,0.01,VWS V14.01,2013-06-30 14:41:00,
2013-06-30 10:46:00,70.7,67.9,29.74,East,83,0.0,0.0,91,0.01,,---,0.01,VWS V14.01,2013-06-30 14:46:00,
2013-06-30 10:51:00,71.1,68.3,29.74,ESE,104,0.0,0.0,91,0.01,,---,0.01,VWS V14.01,2013-06-30 14:51:00,
2013-06-30 10:56:00,71.2,67.8,29.74,ESE,105,0.0,0.0,89,0.01,,---,0.01,VWS V14.01,2013-06-30 14:56:00,
2013-06-30 11:00:00,67.7,67.4,29.75,East,95,0.0,0.0,99,0.00,,---,0.00,VWS V14.01,2013-06-30 15:00:00,
2013-06-30 11:01:00,71.7,68.6,29.74,North,5,0.0,0.0,90,0.01,,---,0.01,VWS V14.01,2013-06-30 15:01:00,
2013-06-30 11:06:00,73.0,68.9,29.74,ENE,77,0.0,8.0,87,0.01,,---,0.01,VWS V14.01,2013-06-30 15:06:00,
2013-06-30 11:11:00,73.3,68.5,29.74,ENE,76,7.0,8.0,85,0.01,,---,0.01,VWS V14.01,2013-06-30 15:11:00,
2013-06-30 11:16:00,73.3,68.5,29.74,ESE,112,1.0,8.0,85,0.01,,---,0.01,VWS V14.01,2013-06-30 15:16:00,
2013-06-30 11:21:00,74.0,68.9,29.74,ESE,119,1.0,8.0,84,0.01,,---,0.01,VWS V14.01,2013-06-30 15:21:00,
2013-06-30 11:26:00,74.5,68.7,29.74,East,94,1.0,8.0,82,0.01,,---,0.01,VWS V14.01,2013-06-30 15:26:00,
2013-06-30 11:30:00,70.2,68.4,29.74,East,101,0.0,0.0,94,0.01,,---,0.01,VWS V14.01,2013-06-30 15:30:00,
2013-06-30 11:31:00,74.3,68.1,29.74,NNE,25,4.0,8.0,81,0.01,,---,0.01,VWS V14.01,2013-06-30 15:31:00,
2013-06-30 11:36:00,75.1,69.2,29.74,East,86,6.0,7.0,82,0.00,,---,0.01,VWS V14.01,2013-06-30 15:36:00,
2013-06-30 11:41:00,75.6,69.7,29.74,ESE,102,2.0,7.0,82,0.00,,---,0.01,VWS V14.01,2013-06-30 15:41:00,
2013-06-30 11:46:00,76.7,69.7,29.74,ESE,102,1.0,7.0,79,0.00,,---,0.01,VWS V14.01,2013-06-30 15:46:00,
2013-06-30 11:51:00,76.7,69.3,29.74,ESE,110,2.0,7.0,78,0.00,,---,0.01,VWS V14.01,2013-06-30 15:51:00,
2013-06-30 11:56:00,76.9,69.9,29.74,NW,324,1.0,7.0,79,0.00,,---,0.01,VWS V14.01,2013-06-30 15:56:00,
2013-06-30 12:00:00,72.8,69.7,29.74,ENE,68,5.0,7.0,90,0.01,,---,0.01,VWS V14.01,2013-06-30 16:00:00,
2013-06-30 12:01:00,77.2,69.4,29.75,NNE,33,1.0,7.0,77,0.00,,---,0.01,VWS V14.01,2013-06-30 16:01:00,
2013-06-30 12:06:00,76.6,68.9,29.75,NW,322,1.0,3.0,77,0.00,,---,0.01,VWS V14.01,2013-06-30 16:06:00,
2013-06-30 12:11:00,76.8,69.4,29.75,ESE,103,0.0,4.0,78,0.00,,---,0.01,VWS V14.01,2013-06-30 16:11:00,
2013-06-30 12:16:00,75.9,68.2,29.75,East,88,0.0,8.0,77,0.00,,---,0.01,VWS V14.01,2013-06-30 16:16:00,
2013-06-30 12:21:00,73.2,67.0,29.75,East,84,2.0,9.0,81,0.00,,---,0.01,VWS V14.01,2013-06-30 16:21:00,
2013-06-30 12:26:00,73.1,68.3,29.75,ESE,103,7.0,9.0,85,0.00,,---,0.01,VWS V14.01,2013-06-30 16:26:00,
2013-06-30 12:30:00,74.7,68.5,29.74,NNE,23,1.0,8.0,81,0.01,,---,0.01,VWS V14.01,2013-06-30 16:30:00,
2013-06-30 12:31:00,72.9,67.4,29.75,ESE,103,9.0,10.0,83,0.00,,---,0.01,VWS V14.01,2013-06-30 16:31:00,
2013-06-30 12:36:00,72.9,67.4,29.75,ENE,74,3.0,7.0,83,0.00,,---,0.01,VWS V14.01,2013-06-30 16:36:00,
2013-06-30 12:41:00,72.7,66.9,29.75,East,86,6.0,8.0,82,0.00,,---,0.01,VWS V14.01,2013-06-30 16:41:00,
2013-06-30 12:46:00,72.5,67.4,29.75,East,91,7.0,9.0,84,0.00,,---,0.01,VWS V14.01,2013-06-30 16:46:00,
2013-06-30 12:51:00,72.8,68.0,29.75,East,80,3.0,9.0,85,0.00,,---,0.01,VWS V14.01,2013-06-30 16:51:00,
2013-06-30 12:56:00,72.9,67.8,29.75,ESE,115,5.0,9.0,84,0.00,,---,0.01,VWS V14.01,2013-06-30 16:56:00,
2013-06-30 13:00:00,76.9,68.4,29.75,East,101,1.0,7.0,75,0.00,,---,0.01,VWS V14.01,2013-06-30 17:00:00,
2013-06-30 13:01:00,72.4,67.3,29.75,NE,51,3.0,11.0,84,0.00,,---,0.01,VWS V14.01,2013-06-30 17:01:00,
2013-06-30 13:06:00,72.8,68.0,29.76,SE,127,4.0,7.0,85,0.00,,---,0.01,VWS V14.01,2013-06-30 17:06:00,
2013-06-30 13:11:00,72.9,67.8,29.75,SE,132,1.0,7.0,84,0.00,,---,0.01,VWS V14.01,2013-06-30 17:11:00,
2013-06-30 13:16:00,73.5,67.7,29.76,ESE,119,4.0,9.0,82,0.00,,---,0.01,VWS V14.01,2013-06-30 17:16:00,
2013-06-30 13:21:00,73.5,68.7,29.76,ENE,61,1.0,9.0,85,0.00,,---,0.01,VWS V14.01,2013-06-30 17:21:00,
2013-06-30 13:26:00,74.5,68.7,29.76,ESE,111,4.0,9.0,82,0.00,,---,0.01,VWS V14.01,2013-06-30 17:26:00,
2013-06-30 13:30:00,72.9,67.4,29.75,NE,45,3.0,10.0,83,0.00,,---,0.01,VWS V14.01,2013-06-30 17:30:00,
2013-06-30 13:31:00,74.0,68.2,29.76,East,79,6.0,9.0,82,0.00,,---,0.01,VWS V14.01,2013-06-30 17:31:00,
2013-06-30 13:36:00,73.9,68.4,29.76,East,87,9.0,12.0,83,0.00,,---,0.01,VWS V14.01,2013-06-30 17:36:00,
2013-06-30 13:41:00,73.4,67.9,29.76,ENE,70,2.0,12.0,83,0.00,,---,0.01,VWS V14.01,2013-06-30 17:41:00,
2013-06-30 13:46:00,73.1,68.0,29.76,ESE,120,9.0,12.0,84,0.00,,---,0.01,VWS V14.01,2013-06-30 17:46:00,
2013-06-30 13:51:00,73.3,68.2,29.76,East,95,7.0,12.0,84,0.00,,---,0.01,VWS V14.01,2013-06-30 17:51:00,
2013-06-30 13:56:00,72.5,67.4,29.76,NE,44,6.0,12.0,84,0.00,,---,0.01,VWS V14.01,2013-06-30 17:56:00,
2013-06-30 14:00:00,72.5,67.7,29.76,ENE,73,0.0,11.0,85,0.00,,---,0.01,VWS V14.01,2013-06-30 18:00:00,
2013-06-30 14:01:00,72.2,67.4,29.76,East,88,6.0,12.0,85,0.00,,---,0.01,VWS V14.01,2013-06-30 18:01:00,
2013-06-30 14:06:00,72.0,67.2,29.76,East,100,8.0,10.0,85,0.00,,---,0.01,VWS V14.01,2013-06-30 18:06:00,
2013-06-30 14:11:00,71.5,67.1,29.76,East,81,5.0,13.0,86,0.00,,---,0.01,VWS V14.01,2013-06-30 18:11:00,
2013-06-30 14:16:00,71.9,67.2,29.76,East,100,2.0,13.0,85,0.00,,---,0.01,VWS V14.01,2013-06-30 18:16:00,
2013-06-30 14:21:00,72.4,67.6,29.76,East,94,3.0,13.0,85,0.00,,---,0.01,VWS V14.01,2013-06-30 18:21:00,
2013-06-30 14:26:00,73.4,68.3,29.76,ESE,112,5.0,13.0,84,0.00,,---,0.01,VWS V14.01,2013-06-30 18:26:00,
2013-06-30 14:30:00,74.0,68.5,29.76,SE,128,8.0,9.0,83,0.00,,---,0.01,VWS V14.01,2013-06-30 18:30:00,
2013-06-30 14:31:00,73.3,67.5,29.76,East,84,7.0,13.0,82,0.00,,---,0.01,VWS V14.01,2013-06-30 18:31:00,
2013-06-30 14:36:00,72.4,67.3,29.76,East,82,3.0,6.0,84,0.00,,---,0.01,VWS V14.01,2013-06-30 18:36:00,
2013-06-30 14:41:00,72.6,67.8,29.76,East,98,5.0,6.0,85,0.00,,---,0.01,VWS V14.01,2013-06-30 18:41:00,
2013-06-30 14:46:00,72.3,67.5,29.76,ESE,121,1.0,8.0,85,0.00,,---,0.01,VWS V14.01,2013-06-30 18:46:00,
2013-06-30 14:51:00,72.5,67.7,29.76,ESE,103,2.0,8.0,85,0.00,,---,0.01,VWS V14.01,2013-06-30 18:51:00,
2013-06-30 14:56:00,72.7,67.6,29.76,East,90,8.0,9.0,84,0.00,,---,0.01,VWS V14.01,2013-06-30 18:56:00,
2013-06-30 15:00:00,72.1,67.3,29.76,East,101,6.0,12.0,85,0.00,,---,0.01,VWS V14.01,2013-06-30 19:00:00,
2013-06-30 15:01:00,72.4,67.6,29.77,ESE,119,5.0,9.0,85,0.00,,---,0.01,VWS V14.01,2013-06-30 19:01:00,
2013-06-30 15:06:00,71.9,67.2,29.76,SE,124,6.0,9.0,85,0.00,,---,0.01,VWS V14.01,2013-06-30 19:06:00,
2013-06-30 15:11:00,72.1,67.7,29.77,ESE,107,5.0,9.0,86,0.00,,---,0.01,VWS V14.01,2013-06-30 19:11:00,
2013-06-30 15:16:00,72.1,67.7,29.77,SSE,149,2.0,9.0,86,0.00,,---,0.01,VWS V14.01,2013-06-30 19:16:00,
2013-06-30 15:21:00,72.2,67.8,29.77,SE,134,6.0,9.0,86,0.00,,---,0.01,VWS V14.01,2013-06-30 19:21:00,
2013-06-30 15:26:00,72.1,67.7,29.77,ESE,117,5.0,11.0,86,0.00,,---,0.01,VWS V14.01,2013-06-30 19:26:00,
2013-06-30 15:30:00,72.7,67.2,29.76,ESE,108,4.0,13.0,83,0.00,,---,0.01,VWS V14.01,2013-06-30 19:30:00,
2013-06-30 15:31:00,71.7,67.6,29.77,East,79,3.0,11.0,87,0.00,,---,0.01,VWS V14.01,2013-06-30 19:31:00,
2013-06-30 15:36:00,71.8,67.4,29.77,ESE,107,2.0,8.0,86,0.00,,---,0.01,VWS V14.01,2013-06-30 19:36:00,
2013-06-30 15:41:00,71.9,67.8,29.77,ENE,73,3.0,8.0,87,0.00,,---,0.01,VWS V14.01,2013-06-30 19:41:00,
2013-06-30 15:46:00,71.8,67.7,29.77,East,94,3.0,8.0,87,0.00,,---,0.01,VWS V14.01,2013-06-30 19:46:00,
2013-06-30 15:51:00,71.9,67.5,29.77,ESE,117,4.0,8.0,86,0.00,,---,0.01,VWS V14.01,2013-06-30 19:51:00,
2013-06-30 15:56:00,72.1,67.7,29.77,ESE,115,5.0,8.0,86,0.00,,---,0.01,VWS V14.01,2013-06-30 19:56:00,
2013-06-30 16:00:00,72.0,67.6,29.77,SE,125,6.0,10.0,86,0.00,,---,0.01,VWS V14.01,2013-06-30 20:00:00,
2013-06-30 16:01:00,72.5,68.1,29.77,SE,128,5.0,8.0,86,0.00,,---,0.01,VWS V14.01,2013-06-30 20:01:00,
2013-06-30 16:06:00,72.4,68.0,29.77,SE,132,8.0,9.0,86,0.00,,---,0.01,VWS V14.01,2013-06-30 20:06:00,
2013-06-30 16:11:00,72.0,67.6,29.77,SE,136,5.0,11.0,86,0.00,,---,0.01,VWS V14.01,2013-06-30 20:11:00,
2013-06-30 16:16:00,72.4,68.0,29.77,SE,138,6.0,11.0,86,0.00,,---,0.01,VWS V14.01,2013-06-30 20:16:00,
2013-06-30 16:21:00,72.6,68.2,29.78,ESE,113,4.0,11.0,86,0.00,,---,0.01,VWS V14.01,2013-06-30 20:21:00,
2013-06-30 16:26:00,72.8,68.4,29.78,ESE,107,4.0,11.0,86,0.00,,---,0.01,VWS V14.01,2013-06-30 20:26:00,
2013-06-30 16:30:00,71.8,67.7,29.77,ESE,106,3.0,11.0,87,0.00,,---,0.01,VWS V14.01,2013-06-30 20:30:00,
2013-06-30 16:31:00,72.4,67.6,29.78,ESE,122,10.0,11.0,85,0.00,,---,0.01,VWS V14.01,2013-06-30 20:31:00,
2013-06-30 16:36:00,72.4,68.3,29.78,ESE,123,7.0,8.0,87,0.00,,---,0.01,VWS V14.01,2013-06-30 20:36:00,
2013-06-30 16:41:00,72.0,67.9,29.78,ESE,121,7.0,11.0,87,0.00,,---,0.01,VWS V14.01,2013-06-30 20:41:00,
2013-06-30 16:46:00,71.3,67.6,29.78,SE,129,7.0,14.0,88,0.00,,---,0.01,VWS V14.01,2013-06-30 20:46:00,
2013-06-30 16:51:00,71.1,67.7,29.78,SE,132,5.0,14.0,89,0.00,,---,0.01,VWS V14.01,2013-06-30 20:51:00,
2013-06-30 16:56:00,71.2,67.1,29.78,East,94,6.0,14.0,87,0.00,,---,0.01,VWS V14.01,2013-06-30 20:56:00,
2013-06-30 17:00:00,72.4,68.0,29.77,SE,124,5.0,11.0,86,0.00,,---,0.01,VWS V14.01,2013-06-30 21:00:00,
2013-06-30 17:01:00,71.2,67.5,29.78,SE,127,3.0,14.0,88,0.00,,---,0.01,VWS V14.01,2013-06-30 21:01:00,
2013-06-30 17:06:00,71.3,67.6,29.78,ESE,108,4.0,10.0,88,0.00,,---,0.01,VWS V14.01,2013-06-30 21:06:00,
2013-06-30 17:11:00,71.0,67.3,29.78,East,93,5.0,10.0,88,0.00,,---,0.01,VWS V14.01,2013-06-30 21:11:00,
2013-06-30 17:16:00,70.3,66.6,29.78,ESE,121,7.0,10.0,88,0.00,,---,0.01,VWS V14.01,2013-06-30 21:16:00,
2013-06-30 17:21:00,69.9,66.8,29.78,ENE,66,7.0,10.0,90,0.00,,---,0.01,VWS V14.01,2013-06-30 21:21:00,
2013-06-30 17:26:00,69.5,66.4,29.78,East,89,3.0,10.0,90,0.00,,---,0.01,VWS V14.01,2013-06-30 21:26:00,
2013-06-30 17:30:00,72.3,67.9,29.78,SE,127,3.0,11.0,86,0.00,,---,0.01,VWS V14.01,2013-06-30 21:30:00,
2013-06-30 17:31:00,69.0,65.9,29.78,ESE,105,4.0,10.0,90,0.00,,---,0.01,VWS V14.01,2013-06-30 21:31:00,
2013-06-30 17:36:00,68.6,65.9,29.78,East,80,3.0,5.0,91,0.00,,---,0.01,VWS V14.01,2013-06-30 21:36:00,
2013-06-30 17:41:00,68.4,66.0,29.78,East,80,7.0,9.0,92,0.00,,---,0.01,VWS V14.01,2013-06-30 21:41:00,
2013-06-30 17:46:00,68.1,65.7,29.79,East,88,5.0,9.0,92,0.00,,---,0.01,VWS V14.01,2013-06-30 21:46:00,
2013-06-30 17:51:00,67.9,65.8,29.79,East,93,6.0,9.0,93,0.00,,---,0.01,VWS V14.01,2013-06-30 21:51:00,
2013-06-30 17:55:00,68.0,66.2,29.79,ESE,107,2.0,9.0,94,0.00,,---,0.01,VWS V14.01,2013-06-30 21:55:00,
2013-06-30 17:56:00,68.0,65.9,29.79,ESE,107,2.0,9.0,93,0.00,,---,0.01,VWS V14.01,2013-06-30 21:56:00,
2013-06-30 18:00:00,71.4,67.7,29.78,SE,138,10.0,14.0,88,0.00,,---,0.01,VWS V14.01,2013-06-30 22:00:00,
2013-06-30 18:01:00,67.9,65.8,29.79,East,87,3.0,9.0,93,0.00,,---,0.01,VWS V14.01,2013-06-30 22:01:00,
2013-06-30 18:06:00,67.8,65.7,29.80,SE,126,8.0,8.0,93,0.00,,---,0.01,VWS V14.01,2013-06-30 22:06:00,
2013-06-30 18:11:00,67.7,65.6,29.80,SE,128,5.0,8.0,93,0.00,,---,0.01,VWS V14.01,2013-06-30 22:11:00,
2013-06-30 18:16:00,67.6,65.5,29.80,East,92,6.0,9.0,93,0.00,,---,0.01,VWS V14.01,2013-06-30 22:16:00,
2013-06-30 18:21:00,67.6,65.5,29.81,ESE,113,8.0,10.0,93,0.00,,---,0.01,VWS V14.01,2013-06-30 22:21:00,
2013-06-30 18:26:00,67.8,65.7,29.81,ESE,103,5.0,10.0,93,0.00,,---,0.01,VWS V14.01,2013-06-30 22:26:00,
2013-06-30 18:30:00,68.6,65.9,29.78,ESE,106,2.0,10.0,91,0.00,,---,0.01,VWS V14.01,2013-06-30 22:30:00,
2013-06-30 18:31:00,67.9,65.8,29.81,ESE,115,9.0,10.0,93,0.00,,---,0.01,VWS V14.01,2013-06-30 22:31:00,
2013-06-30 18:36:00,68.1,66.0,29.81,ESE,117,5.0,8.0,93,0.00,,---,0.01,VWS V14.01,2013-06-30 22:36:00,
2013-06-30 18:41:00,68.2,66.1,29.81,SE,128,2.0,10.0,93,0.00,,---,0.01,VWS V14.01,2013-06-30 22:41:00,
2013-06-30 18:46:00,68.5,66.4,29.81,SE,144,6.0,11.0,93,0.00,,---,0.01,VWS V14.01,2013-06-30 22:46:00,
2013-06-30 18:51:00,68.5,66.1,29.82,SE,133,7.0,11.0,92,0.00,,---,0.01,VWS V14.01,2013-06-30 22:51:00,
2013-06-30 18:56:00,68.4,66.0,29.81,SE,126,4.0,11.0,92,0.00,,---,0.01,VWS V14.01,2013-06-30 22:56:00,
2013-06-30 19:00:00,67.8,65.7,29.80,ESE,102,3.0,10.0,93,0.00,,---,0.01,VWS V14.01,2013-06-30 23:00:00,
2013-06-30 19:01:00,68.3,65.9,29.82,East,88,3.0,11.0,92,0.00,,---,0.01,VWS V14.01,2013-06-30 23:01:00,
2013-06-30 19:06:00,68.3,65.9,29.82,ENE,66,8.0,8.0,92,0.00,,---,0.01,VWS V14.01,2013-06-30 23:06:00,
2013-06-30 19:11:00,68.2,66.1,29.82,East,98,7.0,11.0,93,0.00,,---,0.01,VWS V14.01,2013-06-30 23:11:00,
2013-06-30 19:16:00,68.0,65.9,29.82,East,81,3.0,11.0,93,0.00,,---,0.01,VWS V14.01,2013-06-30 23:16:00,
2013-06-30 19:21:00,67.7,65.6,29.82,ESE,108,2.0,11.0,93,0.00,,---,0.01,VWS V14.01,2013-06-30 23:21:00,
2013-06-30 19:26:00,67.4,65.3,29.82,East,97,0.0,11.0,93,0.00,,---,0.01,VWS V14.01,2013-06-30 23:26:00,
2013-06-30 19:30:00,68.0,65.9,29.81,SE,133,6.0,12.0,93,0.00,,---,0.01,VWS V14.01,2013-06-30 23:30:00,
2013-06-30 19:31:00,67.1,65.0,29.82,ESE,122,5.0,11.0,93,0.00,,---,0.01,VWS V14.01,2013-06-30 23:31:00,
2013-06-30 19:36:00,66.8,65.0,29.82,SE,138,2.0,4.0,94,0.00,,---,0.01,VWS V14.01,2013-06-30 23:36:00,
2013-06-30 19:41:00,66.6,64.8,29.82,East,98,2.0,7.0,94,0.00,,---,0.01,VWS V14.01,2013-06-30 23:41:00,
2013-06-30 19:46:00,66.4,64.6,29.82,ESE,116,5.0,7.0,94,0.00,,---,0.01,VWS V14.01,2013-06-30 23:46:00,
2013-06-30 19:51:00,66.2,64.7,29.82,East,101,1.0,8.0,95,0.00,,---,0.01,VWS V14.01,2013-06-30 23:51:00,
2013-06-30 19:56:00,66.2,64.7,29.82,ESE,105,1.0,8.0,95,0.00,,---,0.01,VWS V14.01,2013-06-30 23:56:00,
2013-06-30 20:00:00,68.3,65.9,29.82,SE,126,0.0,11.0,92,0.00,,---,0.01,VWS V14.01,2013-07-01 00:00:00,
2013-06-30 20:01:00,66.2,64.7,29.82,East,97,5.0,8.0,95,0.00,,---,0.01,VWS V14.01,2013-07-01 00:01:00,
2013-06-30 20:06:00,66.2,65.0,29.82,ESE,112,4.0,5.0,96,0.00,,---,0.01,VWS V14.01,2013-07-01 00:06:00,
2013-06-30 20:11:00,66.2,65.0,29.82,SE,133,4.0,7.0,96,0.00,,---,0.01,VWS V14.01,2013-07-01 00:11:00,
2013-06-30 20:15:00,66.2,65.0,29.82,East,79,3.0,7.0,96,0.00,,---,0.01,VWS V14.01,2013-07-01 00:15:00,
2013-06-30 20:20:00,66.2,65.0,29.82,SE,131,1.0,7.0,96,0.00,,---,0.01,VWS V14.01,2013-07-01 00:20:00,
2013-06-30 20:25:00,66.2,65.0,29.82,SE,132,2.0,7.0,96,0.00,,---,0.01,VWS V14.01,2013-07-01 00:25:00,
2013-06-30 20:30:00,66.2,65.0,29.83,ESE,112,5.0,8.0,96,0.00,,---,0.01,VWS V14.01,2013-07-01 00:30:00,
2013-06-30 20:35:00,66.1,64.9,29.83,ESE,111,0.0,2.0,96,0.00,,---,0.01,VWS V14.01,2013-07-01 00:35:00,
2013-06-30 20:40:00,66.1,64.9,29.83,SE,138,4.0,4.0,96,0.00,,---,0.01,VWS V14.01,2013-07-01 00:40:00,
2013-06-30 20:45:00,66.2,65.0,29.83,SSE,149,2.0,5.0,96,0.00,,---,0.01,VWS V14.01,2013-07-01 00:45:00,
2013-06-30 20:50:00,66.2,65.0,29.84,ESE,115,3.0,6.0,96,0.00,,---,0.01,VWS V14.01,2013-07-01 00:50:00,
2013-06-30 20:55:00,66.1,64.9,29.84,East,80,3.0,7.0,96,0.00,,---,0.01,VWS V14.01,2013-07-01 00:55:00,
2013-06-30 21:00:00,66.1,64.9,29.84,ENE,60,3.0,7.0,96,0.00,,---,0.01,VWS V14.01,2013-07-01 01:00:00,
2013-06-30 21:05:00,66.1,64.9,29.84,ESE,111,1.0,4.0,96,0.00,,---,0.01,VWS V14.01,2013-07-01 01:05:00,
2013-06-30 21:10:00,66.0,64.8,29.84,East,81,1.0,6.0,96,0.00,,---,0.01,VWS V14.01,2013-07-01 01:10:00,
2013-06-30 21:15:00,65.9,64.7,29.84,ENE,75,1.0,6.0,96,0.00,,---,0.01,VWS V14.01,2013-07-01 01:15:00,
2013-06-30 21:20:00,65.7,64.5,29.84,ESE,117,0.0,6.0,96,0.00,,---,0.01,VWS V14.01,2013-07-01 01:20:00,
2013-06-30 21:25:00,65.5,64.3,29.84,East,86,0.0,6.0,96,0.00,,---,0.01,VWS V14.01,2013-07-01 01:25:00,
2013-06-30 21:30:00,65.3,63.8,29.84,East,94,0.0,7.0,95,0.00,,---,0.01,VWS V14.01,2013-07-01 01:30:00,
2013-06-30 21:35:00,65.2,64.0,29.85,ESE,117,2.0,3.0,96,0.00,,---,0.01,VWS V14.01,2013-07-01 01:35:00,
2013-06-30 21:40:00,65.1,63.6,29.85,ESE,103,3.0,3.0,95,0.00,,---,0.01,VWS V14.01,2013-07-01 01:40:00,
2013-06-30 21:45:00,65.0,63.5,29.85,East,93,2.0,5.0,95,0.00,,---,0.01,VWS V14.01,2013-07-01 01:45:00,
2013-06-30 21:50:00,64.9,63.4,29.86,SE,127,2.0,8.0,95,0.00,,---,0.01,VWS V14.01,2013-07-01 01:50:00,
2013-06-30 21:55:00,64.9,63.4,29.86,South,173,4.0,8.0,95,0.00,,---,0.01,VWS V14.01,2013-07-01 01:55:00,
2013-06-30 22:00:00,65.0,63.5,29.86,SSE,157,6.0,8.0,95,0.00,,---,0.01,VWS V14.01,2013-07-01 02:00:00,
2013-06-30 22:05:00,64.9,63.4,29.86,SSE,153,2.0,5.0,95,0.00,,---,0.01,VWS V14.01,2013-07-01 02:05:00,
2013-06-30 22:10:00,65.0,63.5,29.86,SE,128,3.0,5.0,95,0.00,,---,0.01,VWS V14.01,2013-07-01 02:10:00,
2013-06-30 22:15:00,64.9,63.1,29.86,East,101,3.0,6.0,94,0.00,,---,0.01,VWS V14.01,2013-07-01 02:15:00,
2013-06-30 22:20:00,64.8,63.0,29.86,East,91,5.0,6.0,94,0.00,,---,0.01,VWS V14.01,2013-07-01 02:20:00,
2013-06-30 22:25:00,64.7,62.9,29.85,ENE,63,4.0,6.0,94,0.00,,---,0.01,VWS V14.01,2013-07-01 02:25:00,
2013-06-30 22:30:00,64.6,62.8,29.85,East,84,3.0,8.0,94,0.00,,---,0.01,VWS V14.01,2013-07-01 02:30:00,
2013-06-30 22:35:00,64.5,62.7,29.85,ENE,67,3.0,7.0,94,0.00,,---,0.01,VWS V14.01,2013-07-01 02:35:00,
2013-06-30 22:40:00,64.4,62.6,29.85,East,88,3.0,8.0,94,0.00,,---,0.01,VWS V14.01,2013-07-01 02:40:00,
2013-06-30 22:45:00,64.3,62.5,29.85,East,101,6.0,8.0,94,0.00,,---,0.01,VWS V14.01,2013-07-01 02:45:00,
2013-06-30 22:50:00,64.4,62.6,29.84,ENE,57,1.0,8.0,94,0.00,,---,0.01,VWS V14.01,2013-07-01 02:50:00,
2013-06-30 22:55:00,64.5,62.7,29.84,East,86,5.0,8.0,94,0.00,,---,0.01,VWS V14.01,2013-07-01 02:55:00,
2013-06-30 23:00:00,64.6,62.8,29.84,ESE,113,3.0,8.0,94,0.00,,---,0.01,VWS V14.01,2013-07-01 03:00:00,
2013-06-30 23:05:00,64.7,62.9,29.84,ESE,117,8.0,8.0,94,0.00,,---,0.01,VWS V14.01,2013-07-01 03:05:00,
2013-06-30 23:10:00,64.7,62.9,29.84,East,90,5.0,11.0,94,0.00,,---,0.01,VWS V14.01,2013-07-01 03:10:00,
2013-06-30 23:15:00,64.8,63.0,29.84,East,95,6.0,11.0,94,0.00,,---,0.01,VWS V14.01,2013-07-01 03:15:00,
2013-06-30 23:20:00,64.9,63.1,29.85,ESE,115,9.0,11.0,94,0.00,,---,0.01,VWS V14.01,2013-07-01 03:20:00,
2013-06-30 23:25:00,64.9,63.1,29.85,East,85,6.0,11.0,94,0.00,,---,0.01,VWS V14.01,2013-07-01 03:25:00,
2013-06-30 23:30:00,64.9,63.1,29.84,ESE,114,5.0,11.0,94,0.00,,---,0.01,VWS V14.01,2013-07-01 03:30:00,
2013-06-30 23:35:00,64.8,63.0,29.85,ESE,123,8.0,8.0,94,0.00,,---,0.01,VWS V14.01,2013-07-01 03:35:00,
2013-06-30 23:40:00,64.8,63.3,29.85,ESE,123,9.0,13.0,95,0.00,,---,0.01,VWS V14.01,2013-07-01 03:40:00,
2013-06-30 23:45:00,64.7,63.2,29.84,SE,126,7.0,13.0,95,0.00,,---,0.01,VWS V14.01,2013-07-01 03:45:00,
2013-06-30 23:50:00,64.6,63.1,29.85,ESE,118,4.0,13.0,95,0.00,,---,0.01,VWS V14.01,2013-07-01 03:50:00,
2013-06-30 23:55:00,64.5,63.0,29.84,ESE,111,8.0,13.0,95,0.00,,---,0.01,VWS V14.01,2013-07-01 03:55:00,